Time;durP1;ratioP1;P1;durP2;ratioP2;P2;SDS_P1;SDS_P2;PMS_P1;PMS_P2;Temp;Humidity;BMP_temperature;BMP_pressure;BME280_temperature;BME280_humidity;BME280_pressure;Samples;Min_cycle;Max_cycle;Signal;HPM_P1;HPM_P2
2023/05/15 00:01:48;;;;;;;11.10;5.10;;;;;;;;;;5071342;28;20071;-69
2023/05/15 00:04:15;;;;;;;8.70;5.00;;;;;;;;;;5088260;28;20152;-68
2023/05/15 00:06:41;;;;;;;8.93;4.85;;;;;;;;;;5084546;28;20059;-68
2023/05/15 00:09:09;;;;;;;9.50;5.45;;;;;;;;;;5069094;28;20086;-69
2023/05/15 00:11:37;;;;;;;10.45;5.22;;;;;;;;;;5068793;28;20056;-68
2023/05/15 00:14:04;;;;;;;9.63;4.73;;;;;;;;;;5059351;28;20052;-69
2023/05/15 00:16:30;;;;;;;11.77;5.03;;;;;;;;;;5055064;28;20064;-69
2023/05/15 00:18:57;;;;;;;11.50;5.88;;;;;;;;;;5056855;28;20053;-68
2023/05/15 00:21:23;;;;;;;9.70;5.47;;;;;;;;;;5049584;28;20044;-69
2023/05/15 00:23:52;;;;;;;9.95;5.25;;;;;;;;;;5059196;28;20064;-68
2023/05/15 00:26:19;;;;;;;9.80;5.35;;;;;;;;;;5055476;28;20060;-67
2023/05/15 00:28:47;;;;;;;9.85;4.97;;;;;;;;;;5057539;28;20095;-69
2023/05/15 00:31:15;;;;;;;11.53;5.20;;;;;;;;;;5056368;28;20066;-68
2023/05/15 00:33:42;;;;;;;9.95;5.13;;;;;;;;;;5052475;28;21042;-67
2023/05/15 00:36:08;;;;;;;9.38;4.93;;;;;;;;;;5060804;28;20084;-68
2023/05/15 00:38:35;;;;;;;12.25;5.55;;;;;;;;;;5042906;28;20052;-68
2023/05/15 00:41:01;;;;;;;10.23;5.20;;;;;;;;;;5059515;28;20127;-67
2023/05/15 00:43:28;;;;;;;9.52;5.25;;;;;;;;;;5048045;28;20056;-67
2023/05/15 00:45:57;;;;;;;10.43;5.28;;;;;;;;;;5057137;28;20063;-68
2023/05/15 00:48:24;;;;;;;11.20;5.32;;;;;;;;;;5053314;28;20063;-67
2023/05/15 00:50:51;;;;;;;9.20;5.05;;;;;;;;;;5057945;28;20065;-68
2023/05/15 00:53:17;;;;;;;11.10;5.68;;;;;;;;;;5052493;28;20077;-67
2023/05/15 00:55:45;;;;;;;10.02;5.60;;;;;;;;;;5053502;28;20063;-68
2023/05/15 00:58:13;;;;;;;9.87;5.30;;;;;;;;;;5053755;28;20083;-67
2023/05/15 01:00:39;;;;;;;10.18;5.22;;;;;;;;;;5059362;28;20516;-67
2023/05/15 01:03:08;;;;;;;10.88;5.40;;;;;;;;;;5053692;28;20040;-67
2023/05/15 01:05:34;;;;;;;11.18;5.53;;;;;;;;;;5052108;28;20079;-68
2023/05/15 01:08:16;;;;;;;9.13;5.10;;;;;;;;;;5042024;28;20055;-67
2023/05/15 01:10:43;;;;;;;8.90;5.07;;;;;;;;;;5073776;28;20052;-67
2023/05/15 01:13:09;;;;;;;10.82;5.63;;;;;;;;;;5053847;28;20155;-67
2023/05/15 01:15:36;;;;;;;9.60;4.93;;;;;;;;;;5050481;28;20072;-67
2023/05/15 01:18:02;;;;;;;10.50;5.38;;;;;;;;;;5067901;28;20060;-69
2023/05/15 01:20:33;;;;;;;13.98;5.65;;;;;;;;;;5057403;28;20187;-68
2023/05/15 01:23:06;;;;;;;11.30;5.60;;;;;;;;;;5058195;28;20056;-68
2023/05/15 01:25:52;;;;;;;12.73;5.60;;;;;;;;;;5062855;28;20105;-68
2023/05/15 01:28:22;;;;;;;12.15;5.55;;;;;;;;;;5036562;28;20052;-70
2023/05/15 01:30:50;;;;;;;10.93;6.30;;;;;;;;;;5056796;28;20057;-66
2023/05/15 01:33:18;;;;;;;13.80;5.70;;;;;;;;;;5073079;28;20064;-68
2023/05/15 01:35:46;;;;;;;10.10;5.53;;;;;;;;;;5053426;28;20076;-68
2023/05/15 01:38:15;;;;;;;9.38;5.43;;;;;;;;;;5054087;28;20075;-67
2023/05/15 01:40:43;;;;;;;10.73;5.60;;;;;;;;;;5055153;28;20065;-68
2023/05/15 01:43:11;;;;;;;9.63;5.47;;;;;;;;;;5057588;28;20141;-68
2023/05/15 01:45:41;;;;;;;12.27;5.30;;;;;;;;;;5047726;28;20166;-67
2023/05/15 01:48:08;;;;;;;10.90;5.80;;;;;;;;;;5033117;28;20057;-68
2023/05/15 01:50:35;;;;;;;12.27;5.75;;;;;;;;;;5033618;28;20053;-67
2023/05/15 01:53:02;;;;;;;10.45;5.45;;;;;;;;;;5038473;28;20072;-66
2023/05/15 01:55:30;;;;;;;10.20;5.70;;;;;;;;;;5026878;28;20072;-68
2023/05/15 01:57:57;;;;;;;10.90;5.85;;;;;;;;;;5039455;28;20052;-68
2023/05/15 02:00:24;;;;;;;11.73;5.57;;;;;;;;;;5057042;28;20147;-68
2023/05/15 02:02:52;;;;;;;10.68;5.75;;;;;;;;;;5021357;28;20191;-68
2023/05/15 02:05:20;;;;;;;11.38;5.35;;;;;;;;;;5036240;28;20168;-66
2023/05/15 02:07:47;;;;;;;10.43;5.32;;;;;;;;;;5036450;28;20061;-67
2023/05/15 02:10:13;;;;;;;10.55;5.45;;;;;;;;;;5051207;28;20057;-66
2023/05/15 02:12:40;;;;;;;11.15;5.53;;;;;;;;;;5050729;28;20076;-68
2023/05/15 02:15:09;;;;;;;10.88;5.90;;;;;;;;;;5052035;28;20153;-68
2023/05/15 02:17:35;;;;;;;12.13;5.40;;;;;;;;;;5055814;28;20071;-67
2023/05/15 02:20:04;;;;;;;9.80;5.53;;;;;;;;;;5044391;28;20157;-67
2023/05/15 02:22:31;;;;;;;14.18;6.32;;;;;;;;;;5049225;28;20079;-68
2023/05/15 02:24:57;;;;;;;10.55;5.95;;;;;;;;;;5048097;28;20071;-67
2023/05/15 02:27:25;;;;;;;9.48;5.38;;;;;;;;;;5053142;28;20148;-67
2023/05/15 02:29:59;;;;;;;10.45;5.95;;;;;;;;;;5057342;28;20154;-67
2023/05/15 02:32:29;;;;;;;12.30;6.30;;;;;;;;;;5040955;28;20056;-67
2023/05/15 02:35:03;;;;;;;9.32;5.43;;;;;;;;;;5048124;28;20052;-68
2023/05/15 02:37:33;;;;;;;12.70;6.13;;;;;;;;;;5045877;28;20147;-68
2023/05/15 02:40:00;;;;;;;12.05;5.63;;;;;;;;;;5058222;28;20084;-67
2023/05/15 02:42:28;;;;;;;10.15;5.18;;;;;;;;;;5051714;28;20076;-68
2023/05/15 02:44:54;;;;;;;11.75;6.53;;;;;;;;;;5049391;28;20064;-68
2023/05/15 02:47:22;;;;;;;11.35;5.68;;;;;;;;;;5053496;28;20143;-66
2023/05/15 02:49:48;;;;;;;12.85;6.35;;;;;;;;;;5057097;28;20055;-67
2023/05/15 02:52:15;;;;;;;12.07;6.35;;;;;;;;;;5049478;28;20044;-67
2023/05/15 02:54:43;;;;;;;11.82;6.20;;;;;;;;;;5054372;28;20121;-67
2023/05/15 02:57:09;;;;;;;11.45;5.75;;;;;;;;;;5054407;28;21035;-66
2023/05/15 02:59:36;;;;;;;12.15;6.50;;;;;;;;;;5056945;28;20062;-67
2023/05/15 03:02:02;;;;;;;13.60;6.88;;;;;;;;;;5051133;28;20060;-67
2023/05/15 03:04:29;;;;;;;12.27;5.97;;;;;;;;;;5072348;28;20080;-66
2023/05/15 03:07:00;;;;;;;12.40;6.35;;;;;;;;;;5047660;28;20079;-68
2023/05/15 03:09:27;;;;;;;14.52;6.55;;;;;;;;;;5054359;28;20155;-67
2023/05/15 03:11:55;;;;;;;14.85;6.60;;;;;;;;;;5069510;28;20079;-66
2023/05/15 03:14:21;;;;;;;16.45;6.80;;;;;;;;;;5054048;28;20057;-68
2023/05/15 03:16:48;;;;;;;15.23;7.38;;;;;;;;;;5052364;28;20133;-67
2023/05/15 03:19:14;;;;;;;18.50;7.60;;;;;;;;;;5051385;28;20174;-67
2023/05/15 03:21:41;;;;;;;13.20;7.47;;;;;;;;;;5054216;28;20157;-67
2023/05/15 03:24:07;;;;;;;17.50;7.68;;;;;;;;;;5053684;28;20056;-68
2023/05/15 03:26:33;;;;;;;15.93;8.43;;;;;;;;;;5056023;28;20143;-66
2023/05/15 03:29:04;;;;;;;16.35;7.93;;;;;;;;;;5046027;28;20049;-68
2023/05/15 03:31:31;;;;;;;17.20;8.30;;;;;;;;;;5051228;28;20128;-67
2023/05/15 03:33:57;;;;;;;16.33;7.78;;;;;;;;;;5053154;28;20056;-67
2023/05/15 03:36:23;;;;;;;16.92;8.00;;;;;;;;;;5056441;28;20065;-67
2023/05/15 03:38:50;;;;;;;18.42;8.82;;;;;;;;;;5047391;28;20079;-66
2023/05/15 03:41:17;;;;;;;16.45;8.57;;;;;;;;;;5057446;28;20067;-68
2023/05/15 03:43:43;;;;;;;16.33;8.13;;;;;;;;;;5029581;28;20063;-68
2023/05/15 03:46:11;;;;;;;16.38;8.20;;;;;;;;;;5035311;28;20079;-70
2023/05/15 03:48:38;;;;;;;15.82;8.10;;;;;;;;;;5038277;28;20128;-70
2023/05/15 03:51:04;;;;;;;17.98;8.13;;;;;;;;;;5035054;28;20061;-70
2023/05/15 03:53:31;;;;;;;18.40;8.68;;;;;;;;;;5046519;28;20071;-66
2023/05/15 03:55:57;;;;;;;15.90;8.60;;;;;;;;;;5071816;28;20127;-66
2023/05/15 03:58:24;;;;;;;22.25;8.80;;;;;;;;;;5058868;28;20059;-67
2023/05/15 04:00:51;;;;;;;18.52;9.00;;;;;;;;;;5042930;28;20063;-67
2023/05/15 04:03:21;;;;;;;18.50;8.95;;;;;;;;;;5037261;28;20107;-68
2023/05/15 04:05:48;;;;;;;20.70;8.82;;;;;;;;;;5047470;28;20060;-67
2023/05/15 04:08:17;;;;;;;19.42;8.32;;;;;;;;;;5060528;28;20052;-67
2023/05/15 04:10:46;;;;;;;18.30;8.55;;;;;;;;;;5060718;28;20080;-68
2023/05/15 04:13:13;;;;;;;18.58;9.18;;;;;;;;;;5024856;28;20132;-66
2023/05/15 04:15:39;;;;;;;17.73;8.40;;;;;;;;;;5057629;28;20150;-66
2023/05/15 04:18:06;;;;;;;18.15;8.80;;;;;;;;;;5060077;28;20144;-67
2023/05/15 04:20:35;;;;;;;20.83;9.13;;;;;;;;;;5056537;28;20095;-67
2023/05/15 04:23:02;;;;;;;18.50;9.15;;;;;;;;;;5040914;28;20124;-67
2023/05/15 04:25:29;;;;;;;16.83;8.07;;;;;;;;;;5055227;28;20056;-68
2023/05/15 04:28:00;;;;;;;20.30;9.23;;;;;;;;;;5057511;28;20134;-67
2023/05/15 04:30:26;;;;;;;18.55;9.10;;;;;;;;;;5056637;28;20060;-67
2023/05/15 04:32:52;;;;;;;19.90;9.07;;;;;;;;;;5046782;28;20199;-67
2023/05/15 04:35:19;;;;;;;16.75;8.70;;;;;;;;;;5058907;28;20065;-67
2023/05/15 04:37:47;;;;;;;18.63;8.85;;;;;;;;;;5057031;28;20060;-67
2023/05/15 04:40:15;;;;;;;20.70;9.37;;;;;;;;;;5059856;28;20143;-67
2023/05/15 04:42:41;;;;;;;15.88;8.43;;;;;;;;;;5038646;28;20139;-67
2023/05/15 04:45:11;;;;;;;18.10;9.02;;;;;;;;;;5054586;28;20060;-66
2023/05/15 04:47:37;;;;;;;17.17;8.40;;;;;;;;;;5054376;28;20062;-66
2023/05/15 04:50:05;;;;;;;18.25;9.30;;;;;;;;;;5058850;28;20163;-67
2023/05/15 04:52:35;;;;;;;17.88;8.52;;;;;;;;;;5050439;28;20056;-67
2023/05/15 04:55:05;;;;;;;19.00;8.85;;;;;;;;;;5052032;28;20070;-68
2023/05/15 04:57:31;;;;;;;17.17;8.35;;;;;;;;;;5061737;28;20095;-68
2023/05/15 04:59:59;;;;;;;20.40;10.38;;;;;;;;;;5045130;28;20084;-68
2023/05/15 05:02:27;;;;;;;23.60;9.73;;;;;;;;;;5040933;28;20105;-66
2023/05/15 05:04:54;;;;;;;17.35;9.68;;;;;;;;;;5052489;28;20114;-68
2023/05/15 05:07:21;;;;;;;23.73;9.80;;;;;;;;;;5054057;28;20051;-68
2023/05/15 05:09:47;;;;;;;18.85;9.50;;;;;;;;;;5058187;28;20052;-67
2023/05/15 05:12:22;;;;;;;19.25;9.30;;;;;;;;;;5052870;28;20131;-67
2023/05/15 05:14:49;;;;;;;20.70;10.27;;;;;;;;;;5054529;28;20060;-69
2023/05/15 05:17:15;;;;;;;18.38;9.10;;;;;;;;;;5059390;28;20063;-68
2023/05/15 05:19:42;;;;;;;21.50;10.57;;;;;;;;;;5063123;28;20060;-67
2023/05/15 05:22:11;;;;;;;30.23;10.57;;;;;;;;;;5038401;28;20131;-66
2023/05/15 05:24:42;;;;;;;20.70;9.77;;;;;;;;;;5067807;28;20057;-68
2023/05/15 05:27:11;;;;;;;22.65;10.27;;;;;;;;;;5059813;28;20087;-66
2023/05/15 05:29:41;;;;;;;22.20;9.80;;;;;;;;;;5074348;28;20052;-68
2023/05/15 05:32:08;;;;;;;21.17;10.88;;;;;;;;;;5045035;28;20068;-66
2023/05/15 05:34:34;;;;;;;24.20;10.40;;;;;;;;;;5057296;28;20071;-66
2023/05/15 05:37:01;;;;;;;22.10;10.85;;;;;;;;;;5060925;28;20056;-67
2023/05/15 05:39:28;;;;;;;21.67;11.10;;;;;;;;;;5061437;28;20049;-67
2023/05/15 05:41:54;;;;;;;22.08;10.20;;;;;;;;;;5060023;28;20069;-66
2023/05/15 05:44:21;;;;;;;19.98;9.85;;;;;;;;;;5058864;28;20056;-67
2023/05/15 05:46:49;;;;;;;20.88;9.68;;;;;;;;;;5051725;28;20063;-67
2023/05/15 05:49:15;;;;;;;21.67;9.93;;;;;;;;;;5054360;28;20063;-67
2023/05/15 05:51:41;;;;;;;21.55;10.23;;;;;;;;;;5056459;28;20137;-69
2023/05/15 05:54:08;;;;;;;24.35;10.50;;;;;;;;;;5035333;28;20049;-67
2023/05/15 05:56:34;;;;;;;22.42;10.77;;;;;;;;;;5035764;28;20092;-67
2023/05/15 05:59:05;;;;;;;20.65;9.98;;;;;;;;;;5030225;28;21329;-68
2023/05/15 06:01:31;;;;;;;19.03;9.93;;;;;;;;;;5038197;28;20067;-67
2023/05/15 06:04:00;;;;;;;20.23;10.05;;;;;;;;;;5015312;28;20127;-68
2023/05/15 06:06:26;;;;;;;20.27;9.77;;;;;;;;;;5032426;28;20053;-68
2023/05/15 06:08:55;;;;;;;19.77;9.82;;;;;;;;;;5043780;28;20142;-68
2023/05/15 06:11:22;;;;;;;21.48;11.32;;;;;;;;;;5049790;28;20899;-68
2023/05/15 06:13:53;;;;;;;22.85;10.57;;;;;;;;;;5049333;28;20057;-69
2023/05/15 06:16:26;;;;;;;21.23;10.88;;;;;;;;;;5051181;28;20052;-68
2023/05/15 06:18:53;;;;;;;25.90;11.40;;;;;;;;;;5051901;28;20044;-69
2023/05/15 06:21:21;;;;;;;20.10;9.63;;;;;;;;;;5053239;28;20053;-69
2023/05/15 06:23:48;;;;;;;21.10;10.48;;;;;;;;;;5039844;28;20075;-69
2023/05/15 06:26:14;;;;;;;21.70;10.80;;;;;;;;;;5053273;28;20087;-68
2023/05/15 06:28:45;;;;;;;20.50;9.63;;;;;;;;;;5055662;28;20056;-68
2023/05/15 06:31:12;;;;;;;18.65;9.68;;;;;;;;;;5053109;28;20056;-68
2023/05/15 06:33:42;;;;;;;20.25;10.35;;;;;;;;;;5018712;28;20056;-69
2023/05/15 06:36:09;;;;;;;18.17;9.82;;;;;;;;;;5053672;28;20067;-69
2023/05/15 06:38:41;;;;;;;19.02;9.75;;;;;;;;;;5056177;28;20056;-68
2023/05/15 06:41:09;;;;;;;20.60;10.10;;;;;;;;;;5049696;28;20057;-69
2023/05/15 06:43:38;;;;;;;17.75;9.88;;;;;;;;;;5050820;28;20052;-68
2023/05/15 06:46:04;;;;;;;18.13;9.77;;;;;;;;;;5054876;28;20056;-70
2023/05/15 06:48:31;;;;;;;21.38;10.00;;;;;;;;;;5055523;28;20056;-68
2023/05/15 06:51:03;;;;;;;20.05;10.50;;;;;;;;;;5043638;28;20119;-68
2023/05/15 06:53:29;;;;;;;20.85;10.25;;;;;;;;;;5037131;28;20068;-69
2023/05/15 06:55:57;;;;;;;17.67;9.38;;;;;;;;;;5057811;28;20080;-69
2023/05/15 06:58:24;;;;;;;19.40;10.05;;;;;;;;;;5053225;28;20067;-69
2023/05/15 07:00:51;;;;;;;22.63;10.02;;;;;;;;;;5048524;28;20060;-69
2023/05/15 07:03:17;;;;;;;18.30;9.27;;;;;;;;;;5009147;28;20186;-68
2023/05/15 07:05:44;;;;;;;19.25;10.10;;;;;;;;;;5060784;28;20131;-68
2023/05/15 07:08:11;;;;;;;27.38;10.77;;;;;;;;;;5052681;28;20063;-68
2023/05/15 07:10:39;;;;;;;17.67;9.70;;;;;;;;;;5053981;28;20106;-68
2023/05/15 07:13:10;;;;;;;19.50;10.63;;;;;;;;;;5038701;28;20048;-68
2023/05/15 07:15:36;;;;;;;17.90;9.90;;;;;;;;;;5057017;28;20059;-68
2023/05/15 07:18:20;;;;;;;20.88;9.10;;;;;;;;;;5052188;28;20118;-67
2023/05/15 07:20:50;;;;;;;18.42;9.38;;;;;;;;;;5047645;28;20060;-67
2023/05/15 07:23:16;;;;;;;18.77;9.63;;;;;;;;;;5029556;28;20106;-68
2023/05/15 07:25:46;;;;;;;18.10;9.77;;;;;;;;;;5053610;28;20118;-67
2023/05/15 07:28:16;;;;;;;18.48;9.40;;;;;;;;;;5057033;28;20080;-68
2023/05/15 07:30:43;;;;;;;20.08;9.20;;;;;;;;;;5050925;28;20064;-68
2023/05/15 07:33:12;;;;;;;19.13;9.93;;;;;;;;;;5030511;28;20056;-68
2023/05/15 07:35:41;;;;;;;20.67;10.10;;;;;;;;;;5059945;28;20056;-68
2023/05/15 07:38:11;;;;;;;17.35;9.77;;;;;;;;;;5055690;28;21411;-67
2023/05/15 07:40:41;;;;;;;19.85;10.23;;;;;;;;;;5058608;28;20057;-67
2023/05/15 07:43:08;;;;;;;18.10;9.88;;;;;;;;;;5032758;28;20052;-68
2023/05/15 07:45:36;;;;;;;18.88;9.88;;;;;;;;;;5059030;28;20048;-69
2023/05/15 07:48:13;;;;;;;21.98;9.57;;;;;;;;;;5059511;28;20088;-68
2023/05/15 07:50:43;;;;;;;19.35;10.77;;;;;;;;;;5056266;28;20053;-68
2023/05/15 07:53:10;;;;;;;21.10;9.93;;;;;;;;;;5012375;28;20060;-69
2023/05/15 07:55:50;;;;;;;18.65;9.77;;;;;;;;;;5035434;28;20115;-66
2023/05/15 07:58:17;;;;;;;20.48;10.63;;;;;;;;;;5038637;28;20049;-68
2023/05/15 08:00:45;;;;;;;18.50;10.15;;;;;;;;;;5035308;28;20057;-66
2023/05/15 08:03:11;;;;;;;20.38;10.55;;;;;;;;;;5012012;28;20061;-69
2023/05/15 08:05:44;;;;;;;22.90;10.32;;;;;;;;;;5053937;28;20056;-68
2023/05/15 08:08:10;;;;;;;19.70;9.90;;;;;;;;;;5057461;28;20056;-68
2023/05/15 08:10:41;;;;;;;19.75;10.52;;;;;;;;;;5052834;28;20143;-69
2023/05/15 08:13:09;;;;;;;20.02;10.45;;;;;;;;;;5047139;28;20091;-68
2023/05/15 08:15:35;;;;;;;20.13;10.45;;;;;;;;;;5054233;28;20048;-69
2023/05/15 08:18:07;;;;;;;22.10;10.70;;;;;;;;;;5057639;28;20056;-68
2023/05/15 08:20:45;;;;;;;20.63;10.70;;;;;;;;;;5053731;28;20126;-67
2023/05/15 08:23:14;;;;;;;20.15;10.65;;;;;;;;;;5056000;28;20056;-68
2023/05/15 08:25:41;;;;;;;18.05;9.75;;;;;;;;;;5059381;28;20086;-69
2023/05/15 08:28:07;;;;;;;18.80;10.48;;;;;;;;;;5058039;28;20060;-68
2023/05/15 08:30:36;;;;;;;17.75;10.30;;;;;;;;;;5053651;28;20131;-68
2023/05/15 08:33:02;;;;;;;;;;;;;;;;;;5019135;28;20223;-68
2023/05/15 08:35:30;;;;;;;18.98;9.57;;;;;;;;;;5053802;28;19924;-69
2023/05/15 08:37:59;;;;;;;18.08;9.82;;;;;;;;;;5079520;28;20040;-67
2023/05/15 08:40:26;;;;;;;17.95;10.43;;;;;;;;;;5054481;28;20060;-68
2023/05/15 08:42:53;;;;;;;20.17;10.70;;;;;;;;;;5056270;28;20068;-69
2023/05/15 08:45:20;;;;;;;21.07;10.33;;;;;;;;;;5037770;28;20072;-69
2023/05/15 08:47:47;;;;;;;18.10;10.25;;;;;;;;;;5033953;28;20056;-68
2023/05/15 08:50:14;;;;;;;22.10;10.55;;;;;;;;;;5044608;28;20049;-69
2023/05/15 08:52:43;;;;;;;24.25;11.32;;;;;;;;;;5030472;28;20048;-69
2023/05/15 08:55:09;;;;;;;;;;;;;;;;;;5055155;28;20068;-68
2023/05/15 08:57:40;;;;;;;20.40;10.10;;;;;;;;;;5070815;28;19939;-68
2023/05/15 09:00:13;;;;;;;20.20;10.40;;;;;;;;;;5049364;28;20052;-69
2023/05/15 09:02:43;;;;;;;19.38;10.38;;;;;;;;;;5025274;28;20061;-69
2023/05/15 09:05:10;;;;;;;18.05;10.50;;;;;;;;;;5078516;28;20079;-68
2023/05/15 09:07:38;;;;;;;18.15;10.40;;;;;;;;;;5044860;28;20360;-70
2023/05/15 09:10:06;;;;;;;18.70;10.15;;;;;;;;;;5063624;28;20120;-68
2023/05/15 09:12:41;;;;;;;18.45;10.60;;;;;;;;;;5033259;28;20045;-70
2023/05/15 09:15:11;;;;;;;18.83;10.18;;;;;;;;;;5038937;28;20169;-68
2023/05/15 09:17:38;;;;;;;20.75;11.27;;;;;;;;;;5034130;28;20056;-70
2023/05/15 09:20:08;;;;;;;19.63;10.60;;;;;;;;;;5036023;28;20049;-70
2023/05/15 09:22:39;;;;;;;18.42;10.18;;;;;;;;;;5035398;28;20052;-70
2023/05/15 09:25:09;;;;;;;20.17;10.75;;;;;;;;;;5050894;28;20055;-68
2023/05/15 09:27:40;;;;;;;21.67;11.27;;;;;;;;;;5059547;28;20056;-70
2023/05/15 09:30:15;;;;;;;21.77;10.82;;;;;;;;;;5056542;28;20100;-68
2023/05/15 09:32:41;;;;;;;19.00;10.48;;;;;;;;;;5045842;28;20078;-67
2023/05/15 09:35:23;;;;;;;19.50;10.85;;;;;;;;;;5050115;28;20054;-69
2023/05/15 09:37:58;;;;;;;17.83;10.27;;;;;;;;;;5052189;28;20052;-68
2023/05/15 09:40:28;;;;;;;19.45;11.00;;;;;;;;;;5057806;28;20080;-67
2023/05/15 09:42:54;;;;;;;19.48;10.50;;;;;;;;;;5044364;28;20126;-70
2023/05/15 09:45:25;;;;;;;17.60;10.30;;;;;;;;;;5062481;28;20040;-67
2023/05/15 09:47:55;;;;;;;18.95;9.95;;;;;;;;;;5053663;28;20094;-71
2023/05/15 09:50:25;;;;;;;20.90;11.43;;;;;;;;;;5055107;28;20079;-68
2023/05/15 09:52:51;;;;;;;26.83;11.23;;;;;;;;;;5030308;28;20084;-69
2023/05/15 09:55:19;;;;;;;21.00;11.90;;;;;;;;;;5042751;28;20076;-68
2023/05/15 09:58:05;;;;;;;20.52;11.68;;;;;;;;;;5055687;28;20076;-68
2023/05/15 10:00:37;;;;;;;21.83;11.00;;;;;;;;;;5052313;28;20111;-69
2023/05/15 10:03:04;;;;;;;20.17;11.75;;;;;;;;;;5046414;28;20052;-68
2023/05/15 10:05:31;;;;;;;23.80;11.63;;;;;;;;;;5053838;28;20106;-69
2023/05/15 10:07:57;;;;;;;23.20;11.63;;;;;;;;;;5055163;28;20063;-69
2023/05/15 10:10:24;;;;;;;18.77;10.95;;;;;;;;;;5053700;28;20088;-69
2023/05/15 10:12:52;;;;;;;23.70;12.50;;;;;;;;;;5050096;28;20149;-69
2023/05/15 10:15:20;;;;;;;23.25;11.30;;;;;;;;;;5053892;28;20114;-70
2023/05/15 10:17:49;;;;;;;21.30;11.63;;;;;;;;;;5057451;28;20072;-70
2023/05/15 10:20:16;;;;;;;21.20;12.18;;;;;;;;;;5057756;28;20116;-69
2023/05/15 10:22:45;;;;;;;21.05;11.40;;;;;;;;;;5049936;28;20072;-71
2023/05/15 10:25:15;;;;;;;20.23;11.70;;;;;;;;;;5062491;28;20085;-67
2023/05/15 10:27:42;;;;;;;21.13;11.35;;;;;;;;;;5054942;28;20060;-67
2023/05/15 10:30:11;;;;;;;21.05;11.98;;;;;;;;;;5052388;28;20197;-70
2023/05/15 10:32:41;;;;;;;21.42;12.00;;;;;;;;;;5026148;28;20054;-67
2023/05/15 10:35:09;;;;;;;22.27;11.43;;;;;;;;;;5037190;28;20131;-69
2023/05/15 10:37:36;;;;;;;22.17;12.00;;;;;;;;;;5056921;28;20111;-71
2023/05/15 10:40:05;;;;;;;20.50;11.55;;;;;;;;;;5053664;28;20174;-68
2023/05/15 10:42:33;;;;;;;21.98;12.48;;;;;;;;;;5044967;28;20106;-69
2023/05/15 10:45:04;;;;;;;21.13;11.77;;;;;;;;;;5037445;28;20049;-68
2023/05/15 10:47:33;;;;;;;20.13;11.43;;;;;;;;;;5033239;28;20114;-68
2023/05/15 10:49:59;;;;;;;24.13;11.15;;;;;;;;;;5036596;28;20088;-68
2023/05/15 10:52:26;;;;;;;18.67;10.93;;;;;;;;;;5031201;28;20056;-68
2023/05/15 10:54:57;;;;;;;23.73;11.75;;;;;;;;;;5031859;28;20133;-69
2023/05/15 10:57:25;;;;;;;19.15;11.48;;;;;;;;;;5051155;28;20060;-69
2023/05/15 10:59:51;;;;;;;19.10;11.32;;;;;;;;;;5034270;28;20057;-68
2023/05/15 11:02:22;;;;;;;18.40;11.48;;;;;;;;;;5040579;28;20057;-68
2023/05/15 11:04:53;;;;;;;19.75;11.10;;;;;;;;;;5044635;28;20048;-69
2023/05/15 11:07:29;;;;;;;22.23;11.98;;;;;;;;;;5042066;28;20049;-68
2023/05/15 11:09:56;;;;;;;22.13;12.40;;;;;;;;;;5035492;28;20053;-69
2023/05/15 11:12:24;;;;;;;21.27;12.27;;;;;;;;;;5041525;28;20053;-68
2023/05/15 11:15:17;;;;;;;23.08;12.95;;;;;;;;;;5030052;28;20055;-68
2023/05/15 11:18:02;;;;;;;20.95;12.15;;;;;;;;;;5028090;28;20143;-68
2023/05/15 11:20:35;;;;;;;28.50;13.35;;;;;;;;;;5056256;28;20147;-70
2023/05/15 11:23:11;;;;;;;24.55;12.73;;;;;;;;;;5045935;28;20136;-68
2023/05/15 11:25:38;;;;;;;22.30;12.77;;;;;;;;;;5046845;28;20056;-69
2023/05/15 11:28:20;;;;;;;27.25;13.07;;;;;;;;;;5050767;28;20090;-68
2023/05/15 11:30:50;;;;;;;20.48;12.32;;;;;;;;;;5047647;28;20151;-69
2023/05/15 11:33:17;;;;;;;24.35;13.50;;;;;;;;;;5028177;28;20144;-68
2023/05/15 11:35:47;;;;;;;24.73;13.48;;;;;;;;;;5047848;28;20075;-69
2023/05/15 11:38:14;;;;;;;25.85;13.35;;;;;;;;;;5067456;28;20053;-69
2023/05/15 11:40:45;;;;;;;24.38;13.02;;;;;;;;;;5066830;28;20052;-69
2023/05/15 11:43:17;;;;;;;24.95;13.25;;;;;;;;;;5062020;28;20068;-67
2023/05/15 11:45:45;;;;;;;25.25;13.38;;;;;;;;;;5050736;28;20076;-67
2023/05/15 11:48:15;;;;;;;27.42;13.63;;;;;;;;;;5069189;28;20052;-69
2023/05/15 11:50:42;;;;;;;24.70;13.65;;;;;;;;;;5056189;28;20060;-69
2023/05/15 11:53:11;;;;;;;27.57;13.90;;;;;;;;;;5030275;28;21003;-70
2023/05/15 11:55:40;;;;;;;26.77;14.30;;;;;;;;;;5047739;28;20045;-69
2023/05/15 11:58:15;;;;;;;26.75;14.68;;;;;;;;;;5051671;28;20056;-67
2023/05/15 12:00:44;;;;;;;27.27;14.63;;;;;;;;;;5050583;28;20053;-69
2023/05/15 12:03:14;;;;;;;25.88;13.82;;;;;;;;;;5049175;28;20056;-67
2023/05/15 12:05:45;;;;;;;26.05;14.10;;;;;;;;;;5056729;28;20223;-67
2023/05/15 12:08:13;;;;;;;26.77;14.40;;;;;;;;;;5058888;28;20057;-67
2023/05/15 12:10:42;;;;;;;26.45;14.40;;;;;;;;;;5053711;28;20068;-66
2023/05/15 12:13:10;;;;;;;26.65;13.90;;;;;;;;;;5046657;28;20059;-66
2023/05/15 12:15:37;;;;;;;32.33;13.77;;;;;;;;;;5052340;28;20056;-70
2023/05/15 12:18:07;;;;;;;24.67;12.98;;;;;;;;;;5037920;28;20089;-67
2023/05/15 12:20:33;;;;;;;29.23;14.35;;;;;;;;;;5034735;28;20095;-66
2023/05/15 12:23:00;;;;;;;24.70;13.77;;;;;;;;;;5000244;28;20195;-68
2023/05/15 12:25:31;;;;;;;24.80;13.77;;;;;;;;;;5054234;28;20109;-68
2023/05/15 12:27:58;;;;;;;22.67;12.57;;;;;;;;;;5058430;28;20137;-65
2023/05/15 12:30:25;;;;;;;24.65;13.20;;;;;;;;;;5056902;28;20063;-67
2023/05/15 12:32:56;;;;;;;22.98;12.43;;;;;;;;;;5041527;28;20111;-68
2023/05/15 12:35:25;;;;;;;22.38;13.18;;;;;;;;;;5055186;28;20048;-68
2023/05/15 12:37:52;;;;;;;24.90;13.15;;;;;;;;;;5060104;28;20067;-69
2023/05/15 12:40:21;;;;;;;22.05;11.95;;;;;;;;;;5057325;28;20063;-67
2023/05/15 12:42:47;;;;;;;;;;;;;;;;;;5071573;28;20067;-67
2023/05/15 12:45:16;;;;;;;21.95;11.82;;;;;;;;;;5058178;28;19931;-69
2023/05/15 12:47:43;;;;;;;23.63;12.50;;;;;;;;;;5057696;28;20063;-67
2023/05/15 12:50:15;;;;;;;25.23;11.55;;;;;;;;;;5055814;28;20060;-67
2023/05/15 12:52:46;;;;;;;22.13;11.70;;;;;;;;;;5074524;28;20041;-69
2023/05/15 12:55:15;;;;;;;22.48;11.85;;;;;;;;;;5041017;28;20132;-66
2023/05/15 12:57:44;;;;;;;25.27;12.13;;;;;;;;;;5042128;28;20060;-68
2023/05/15 13:00:11;;;;;;;21.90;12.20;;;;;;;;;;5059149;28;20064;-67
2023/05/15 13:02:44;;;;;;;22.48;11.68;;;;;;;;;;5051744;28;20183;-66
2023/05/15 13:05:11;;;;;;;22.33;11.07;;;;;;;;;;5054747;28;20063;-70
2023/05/15 13:07:42;;;;;;;20.27;10.88;;;;;;;;;;5056313;28;20090;-66
2023/05/15 13:10:08;;;;;;;22.48;12.35;;;;;;;;;;5071735;28;20053;-69
2023/05/15 13:12:39;;;;;;;25.67;11.70;;;;;;;;;;5050196;28;20150;-69
2023/05/15 13:15:06;;;;;;;22.02;10.27;;;;;;;;;;5046328;28;20847;-68
2023/05/15 13:17:33;;;;;;;23.63;11.40;;;;;;;;;;5056640;28;20053;-68
2023/05/15 13:20:05;;;;;;;21.00;10.98;;;;;;;;;;5056774;28;20056;-70
2023/05/15 13:22:33;;;;;;;21.70;11.95;;;;;;;;;;5054868;28;20064;-66
2023/05/15 13:25:00;;;;;;;19.73;11.38;;;;;;;;;;5053029;28;20057;-67
2023/05/15 13:27:26;;;;;;;18.92;10.95;;;;;;;;;;5054558;28;20044;-68
2023/05/15 13:29:53;;;;;;;21.20;11.43;;;;;;;;;;5056203;28;20056;-68
2023/05/15 13:32:19;;;;;;;19.90;10.90;;;;;;;;;;5053360;28;20057;-69
2023/05/15 13:34:58;;;;;;;;;;;;;;;;;;;;;
2023/05/15 13:37:29;;;;;;;19.98;10.73;;;;;;;;;;5053415;28;20108;-68
2023/05/15 13:39:56;;;;;;;20.65;10.98;;;;;;;;;;5059346;28;20061;-67
2023/05/15 13:42:22;;;;;;;19.35;10.32;;;;;;;;;;5051447;28;20063;-65
2023/05/15 13:44:50;;;;;;;19.38;10.55;;;;;;;;;;5015351;28;20129;-70
2023/05/15 13:47:18;;;;;;;18.37;10.37;;;;;;;;;;5052380;28;20060;-67
2023/05/15 13:49:51;;;;;;;18.85;9.50;;;;;;;;;;5058511;28;20159;-67
2023/05/15 13:52:20;;;;;;;16.30;9.32;;;;;;;;;;5077862;28;20211;-68
2023/05/15 13:54:51;;;;;;;17.20;9.98;;;;;;;;;;5037402;28;20040;-66
2023/05/15 13:57:17;;;;;;;19.83;9.88;;;;;;;;;;5042443;28;20065;-66
2023/05/15 13:59:44;;;;;;;15.73;9.05;;;;;;;;;;5053249;28;20083;-65
2023/05/15 14:02:12;;;;;;;19.50;9.20;;;;;;;;;;5057584;28;20064;-67
2023/05/15 14:04:39;;;;;;;16.90;9.52;;;;;;;;;;5040998;28;20078;-67
2023/05/15 14:07:08;;;;;;;16.17;9.32;;;;;;;;;;5055068;28;20074;-68
2023/05/15 14:09:35;;;;;;;16.50;9.65;;;;;;;;;;5054433;28;20052;-67
2023/05/15 14:12:03;;;;;;;17.48;8.88;;;;;;;;;;5057538;28;20060;-66
2023/05/15 14:14:30;;;;;;;16.65;9.30;;;;;;;;;;5055771;28;20064;-65
2023/05/15 14:16:58;;;;;;;;;;;;;;;;;;5055913;28;20040;-66
2023/05/15 14:19:24;;;;;;;13.45;6.93;;;;;;;;;;5052151;28;19930;-68
2023/05/15 14:21:51;;;;;;;14.70;7.43;;;;;;;;;;5055782;28;20060;-66
2023/05/15 14:24:20;;;;;;;11.70;6.78;;;;;;;;;;5040158;28;20151;-69
2023/05/15 14:26:47;;;;;;;14.10;8.23;;;;;;;;;;5053815;28;20057;-69
2023/05/15 14:29:16;;;;;;;15.25;7.50;;;;;;;;;;5051684;28;20129;-69
2023/05/15 14:31:43;;;;;;;13.35;7.28;;;;;;;;;;5054822;28;20084;-65
2023/05/15 14:34:09;;;;;;;14.23;7.60;;;;;;;;;;5030715;28;20102;-65